Time;durP1;ratioP1;P1;durP2;ratioP2;P2;SDS_P1;SDS_P2;PMS_P1;PMS_P2;Temp;Humidity;BMP_temperature;BMP_pressure;BME280_temperature;BME280_humidity;BME280_pressure;Samples;Min_cycle;Max_cycle;Signal;HPM_P1;HPM_P2
2023/06/15 00:00:24;;;;;;;4.10;2.53;;;13.90;99.90;;;;;;5043311;28;20515;-78
2023/06/15 00:02:51;;;;;;;3.17;2.87;;;13.80;99.90;;;;;;5044978;28;21053;-82
2023/06/15 00:05:20;;;;;;;3.33;2.97;;;13.80;99.90;;;;;;5041246;28;20469;-81
2023/06/15 00:07:47;;;;;;;3.40;3.17;;;13.70;99.90;;;;;;5045823;28;20479;-80
2023/06/15 00:10:15;;;;;;;3.50;3.00;;;13.80;99.90;;;;;;5044538;28;20906;-79
2023/06/15 00:12:42;;;;;;;3.53;3.23;;;13.60;99.90;;;;;;5048168;28;20469;-78
2023/06/15 00:15:10;;;;;;;4.10;3.50;;;13.60;99.90;;;;;;5041989;28;20952;-79
2023/06/15 00:17:38;;;;;;;3.00;2.50;;;13.50;99.90;;;;;;5036353;28;20453;-79
2023/06/15 00:20:08;;;;;;;3.10;2.90;;;13.40;99.90;;;;;;5045553;28;20441;-79
2023/06/15 00:22:40;;;;;;;3.70;3.40;;;13.40;99.90;;;;;;5045068;28;20575;-79
2023/06/15 00:25:07;;;;;;;4.30;3.20;;;13.40;99.90;;;;;;5046843;28;20467;-80
2023/06/15 00:27:35;;;;;;;5.33;3.53;;;13.50;99.90;;;;;;5046382;28;20466;-78
2023/06/15 00:30:02;;;;;;;5.00;3.23;;;13.50;99.90;;;;;;5047325;28;21441;-78
2023/06/15 00:32:29;;;;;;;3.40;3.10;;;13.50;99.90;;;;;;5046805;28;20441;-82
2023/06/15 00:34:56;;;;;;;4.87;3.37;;;13.40;99.90;;;;;;5046782;28;21166;-79
2023/06/15 00:37:23;;;;;;;3.37;2.67;;;13.50;99.90;;;;;;5037609;28;21139;-79
2023/06/15 00:39:51;;;;;;;3.00;2.80;;;13.50;99.90;;;;;;5047371;28;20465;-79
2023/06/15 00:42:18;;;;;;;4.10;3.33;;;13.40;99.90;;;;;;5042515;28;20540;-79
2023/06/15 00:44:45;;;;;;;3.43;3.00;;;13.30;99.90;;;;;;5046873;28;20542;-80
2023/06/15 00:47:12;;;;;;;3.97;3.57;;;13.40;99.90;;;;;;5047171;28;20519;-80
2023/06/15 00:49:39;;;;;;;3.13;2.90;;;13.40;99.90;;;;;;5044315;28;20971;-80
2023/06/15 00:52:07;;;;;;;3.63;3.40;;;13.40;99.90;;;;;;5043640;28;20508;-81
2023/06/15 00:54:35;;;;;;;3.80;3.50;;;13.40;99.90;;;;;;5045896;28;20931;-79
2023/06/15 00:57:03;;;;;;;4.23;3.87;;;13.50;99.90;;;;;;5045316;28;20491;-80
2023/06/15 00:59:30;;;;;;;3.87;3.50;;;13.60;99.90;;;;;;5045543;28;20523;-79
2023/06/15 01:01:58;;;;;;;3.70;3.40;;;13.60;99.90;;;;;;5045482;28;20452;-80
2023/06/15 01:04:25;;;;;;;4.50;3.30;;;13.60;99.90;;;;;;5044928;28;20547;-79
2023/06/15 01:06:56;;;;;;;3.57;3.27;;;13.50;99.90;;;;;;5047239;28;20451;-81
2023/06/15 01:09:25;;;;;;;4.23;3.83;;;13.40;99.90;;;;;;5045984;28;20521;-79
2023/06/15 01:11:56;;;;;;;4.70;3.13;;;13.40;99.90;;;;;;5043168;28;20484;-80
2023/06/15 01:14:28;;;;;;;4.33;3.93;;;13.40;99.90;;;;;;5044430;28;20453;-79
2023/06/15 01:17:00;;;;;;;4.27;3.77;;;13.30;99.90;;;;;;5047093;28;20491;-80
2023/06/15 01:19:40;;;;;;;4.07;3.67;;;13.30;99.90;;;;;;5044152;28;20460;-82
2023/06/15 01:22:16;;;;;;;4.33;4.03;;;13.10;99.90;;;;;;5037785;28;20465;-82
2023/06/15 01:24:51;;;;;;;4.00;3.70;;;12.90;99.90;;;;;;5045684;28;20457;-79
2023/06/15 01:27:21;;;;;;;2.70;2.50;;;12.90;99.90;;;;;;5041832;28;20540;-80
2023/06/15 01:29:49;;;;;;;4.70;4.30;;;12.90;99.90;;;;;;5046084;28;20528;-79
2023/06/15 01:32:17;;;;;;;4.80;4.40;;;12.90;99.90;;;;;;5046551;28;20445;-79
2023/06/15 01:34:43;;;;;;;5.23;4.73;;;12.80;99.90;;;;;;5045673;28;20554;-80
2023/06/15 01:37:10;;;;;;;5.87;4.33;;;12.80;99.90;;;;;;5046375;28;21089;-80
2023/06/15 01:39:39;;;;;;;5.13;3.93;;;12.70;99.90;;;;;;5045769;28;20562;-80
2023/06/15 01:42:07;;;;;;;4.80;4.20;;;12.70;99.90;;;;;;5047102;28;20441;-79
2023/06/15 01:44:36;;;;;;;3.97;3.70;;;12.70;99.90;;;;;;5046489;28;20963;-79
2023/06/15 01:47:03;;;;;;;4.47;4.07;;;12.60;99.90;;;;;;5045917;28;20908;-80
2023/06/15 01:49:30;;;;;;;4.43;4.03;;;12.40;99.90;;;;;;5045298;28;20464;-80
2023/06/15 01:51:57;;;;;;;3.80;3.47;;;12.30;99.90;;;;;;5046186;28;20650;-80
2023/06/15 01:54:24;;;;;;;6.00;4.57;;;12.20;99.90;;;;;;5046133;28;20525;-79
2023/06/15 01:56:51;;;;;;;7.17;6.47;;;12.10;99.90;;;;;;5046201;28;20449;-79
2023/06/15 01:59:18;;;;;;;5.70;5.10;;;12.00;99.90;;;;;;5044472;28;20485;-81
2023/06/15 02:01:47;;;;;;;4.57;4.17;;;12.20;99.90;;;;;;5045403;28;20522;-82
2023/06/15 02:04:13;;;;;;;5.50;4.60;;;12.30;99.90;;;;;;5040212;28;20458;-79
2023/06/15 02:06:40;;;;;;;4.17;3.87;;;12.50;99.90;;;;;;5041461;28;20477;-80
2023/06/15 02:09:07;;;;;;;5.10;4.47;;;12.50;99.90;;;;;;5039312;28;21029;-79
2023/06/15 02:11:34;;;;;;;4.93;4.17;;;12.50;99.90;;;;;;5046171;28;20520;-79
2023/06/15 02:14:01;;;;;;;4.57;4.23;;;12.40;99.90;;;;;;5043179;28;20441;-80
2023/06/15 02:16:28;;;;;;;6.00;4.00;;;12.40;99.90;;;;;;5040227;28;20445;-80
2023/06/15 02:19:00;;;;;;;6.47;4.77;;;12.30;99.90;;;;;;5045285;28;20448;-80
2023/06/15 02:21:27;;;;;;;4.80;4.40;;;12.30;99.90;;;;;;5041920;28;20453;-80
2023/06/15 02:23:53;;;;;;;6.43;4.50;;;12.10;99.90;;;;;;5045080;28;20493;-80
2023/06/15 02:26:20;;;;;;;5.17;4.60;;;12.00;99.90;;;;;;5046090;28;20523;-79
2023/06/15 02:28:47;;;;;;;5.17;4.70;;;11.90;99.90;;;;;;5046037;28;20449;-80
2023/06/15 02:31:14;;;;;;;5.03;4.63;;;11.70;99.90;;;;;;5040792;28;20550;-82
2023/06/15 02:33:42;;;;;;;4.23;3.87;;;11.60;99.90;;;;;;5042703;28;20456;-80
2023/06/15 02:36:19;;;;;;;4.43;4.03;;;11.60;99.90;;;;;;5036401;28;21143;-80
2023/06/15 02:38:46;;;;;;;5.10;4.60;;;11.60;99.90;;;;;;5046095;28;20520;-80
2023/06/15 02:41:13;;;;;;;4.80;4.40;;;11.70;99.90;;;;;;5035466;28;20562;-80
2023/06/15 02:43:40;;;;;;;4.03;3.73;;;11.70;99.90;;;;;;5049789;28;20446;-80
2023/06/15 02:46:07;;;;;;;4.67;3.60;;;11.50;99.90;;;;;;5048575;28;20901;-80
2023/06/15 02:48:34;;;;;;;7.30;3.43;;;11.50;99.90;;;;;;5049722;28;20437;-80
2023/06/15 02:51:01;;;;;;;4.03;3.73;;;11.40;99.90;;;;;;5043541;28;20504;-82
2023/06/15 02:53:30;;;;;;;4.47;4.07;;;11.40;99.90;;;;;;5048517;28;20434;-81
2023/06/15 02:55:58;;;;;;;4.37;3.40;;;11.40;99.90;;;;;;5045976;28;20566;-81
2023/06/15 02:58:25;;;;;;;4.57;3.90;;;11.40;99.90;;;;;;5046604;28;20550;-80
2023/06/15 03:00:53;;;;;;;4.03;3.63;;;11.40;99.90;;;;;;5049571;28;20510;-80
2023/06/15 03:03:27;;;;;;;4.57;4.03;;;11.40;99.90;;;;;;5048158;28;20483;-80
2023/06/15 03:05:54;;;;;;;3.70;3.40;;;11.50;99.90;;;;;;5048458;28;20453;-83
2023/06/15 03:08:23;;;;;;;3.83;3.53;;;11.60;99.90;;;;;;5047221;28;20820;-80
2023/06/15 03:10:52;;;;;;;3.33;3.13;;;11.70;99.90;;;;;;5048703;28;20487;-80
2023/06/15 03:13:19;;;;;;;4.37;3.83;;;11.80;99.90;;;;;;5047912;28;20453;-83
2023/06/15 03:15:48;;;;;;;4.00;3.70;;;11.80;99.90;;;;;;5048537;28;20472;-80
2023/06/15 03:18:15;;;;;;;3.93;3.63;;;12.10;99.90;;;;;;5048964;28;20445;-80
2023/06/15 03:20:43;;;;;;;4.10;3.80;;;12.10;99.90;;;;;;5048060;28;20449;-81
2023/06/15 03:23:12;;;;;;;3.53;3.30;;;12.20;99.90;;;;;;5047562;28;20449;-80
2023/06/15 03:25:39;;;;;;;3.97;3.67;;;12.30;99.90;;;;;;5048002;28;20932;-82
2023/06/15 03:28:07;;;;;;;4.33;3.90;;;12.40;99.90;;;;;;5048648;28;20511;-80
2023/06/15 03:30:35;;;;;;;3.57;3.27;;;12.40;99.90;;;;;;5043646;28;20561;-79
2023/06/15 03:33:02;;;;;;;4.30;4.00;;;12.40;99.90;;;;;;5047970;28;20944;-79
2023/06/15 03:35:29;;;;;;;4.87;4.13;;;12.40;99.90;;;;;;5045986;28;20548;-80
2023/06/15 03:37:56;;;;;;;3.67;3.37;;;12.30;99.90;;;;;;5040597;28;20441;-81
2023/06/15 03:40:23;;;;;;;4.53;4.13;;;12.20;99.90;;;;;;5040405;28;20458;-81
2023/06/15 03:42:50;;;;;;;4.80;4.17;;;12.20;99.90;;;;;;5047695;28;20503;-80
2023/06/15 03:45:18;;;;;;;5.33;3.60;;;12.20;99.90;;;;;;5039346;28;20452;-80
2023/06/15 03:47:47;;;;;;;5.07;3.63;;;12.30;99.90;;;;;;5046718;28;20856;-80
2023/06/15 03:50:14;;;;;;;4.73;3.87;;;12.50;99.90;;;;;;5046063;28;20452;-80
2023/06/15 03:52:41;;;;;;;4.87;4.47;;;12.40;99.90;;;;;;5044565;28;20516;-80
2023/06/15 03:55:09;;;;;;;4.37;3.97;;;12.40;99.90;;;;;;5048445;28;20450;-80
2023/06/15 03:57:35;;;;;;;4.27;3.87;;;12.60;99.90;;;;;;5047480;28;20854;-80
2023/06/15 04:00:04;;;;;;;4.93;4.40;;;12.70;99.90;;;;;;5047518;28;20461;-81
2023/06/15 04:02:33;;;;;;;4.13;3.77;;;12.70;99.90;;;;;;5046316;28;21243;-81
2023/06/15 04:05:00;;;;;;;4.43;4.03;;;12.80;99.90;;;;;;5044936;28;21170;-80
2023/06/15 04:07:28;;;;;;;5.03;4.33;;;12.70;99.90;;;;;;5045370;28;20468;-81
2023/06/15 04:09:55;;;;;;;5.10;3.70;;;12.60;99.90;;;;;;5050178;28;20461;-81
2023/06/15 04:12:22;;;;;;;3.77;3.47;;;12.50;99.90;;;;;;5047768;28;20573;-81
2023/06/15 04:14:49;;;;;;;4.93;4.50;;;12.40;99.90;;;;;;5047128;28;20497;-81
2023/06/15 04:17:16;;;;;;;4.90;4.50;;;12.30;99.90;;;;;;5048062;28;20501;-79
2023/06/15 04:19:44;;;;;;;5.03;3.83;;;12.30;99.90;;;;;;5042566;28;20461;-80
2023/06/15 04:22:12;;;;;;;4.57;4.17;;;12.40;99.90;;;;;;5044371;28;20531;-80
2023/06/15 04:24:39;;;;;;;4.07;3.77;;;12.50;99.90;;;;;;5039549;28;20540;-80
2023/06/15 04:27:08;;;;;;;4.70;4.30;;;12.60;99.90;;;;;;5044486;28;20448;-80
2023/06/15 04:29:35;;;;;;;4.87;4.43;;;12.80;99.90;;;;;;5039992;28;20480;-80
2023/06/15 04:32:03;;;;;;;4.37;4.07;;;12.90;99.90;;;;;;5049906;28;20516;-80
2023/06/15 04:34:30;;;;;;;4.13;3.33;;;12.70;99.90;;;;;;5046226;28;20464;-80
2023/06/15 04:36:59;;;;;;;5.47;4.73;;;12.80;99.90;;;;;;5042434;28;20469;-80
2023/06/15 04:39:27;;;;;;;5.80;4.47;;;12.90;99.90;;;;;;5036537;28;20461;-79
2023/06/15 04:41:57;;;;;;;7.07;4.50;;;13.00;99.90;;;;;;5043910;28;20939;-80
2023/06/15 04:44:24;;;;;;;7.40;4.23;;;13.20;99.90;;;;;;5043920;28;20820;-80
2023/06/15 04:46:51;;;;;;;4.43;4.03;;;13.30;99.90;;;;;;5045094;28;20554;-80
2023/06/15 04:49:19;;;;;;;4.30;3.90;;;13.40;99.90;;;;;;5045882;28;20538;-80
2023/06/15 04:51:48;;;;;;;4.33;4.03;;;13.70;99.90;;;;;;5043257;28;20492;-80
2023/06/15 04:54:16;;;;;;;5.67;4.63;;;13.60;99.90;;;;;;5042301;28;20461;-80
2023/06/15 04:56:43;;;;;;;4.33;4.03;;;13.50;99.90;;;;;;5043924;28;20922;-80
2023/06/15 04:59:10;;;;;;;8.77;4.40;;;13.40;99.90;;;;;;5048975;28;20500;-81
2023/06/15 05:01:37;;;;;;;5.30;4.10;;;13.30;99.90;;;;;;5044125;28;20465;-80
2023/06/15 05:04:05;;;;;;;4.87;4.47;;;13.50;99.90;;;;;;5038847;28;21025;-81
2023/06/15 05:06:32;;;;;;;5.40;4.83;;;13.80;99.90;;;;;;5041808;28;20473;-80
2023/06/15 05:08:59;;;;;;;3.53;3.33;;;13.80;99.90;;;;;;5032631;28;21034;-80
2023/06/15 05:11:27;;;;;;;3.97;3.67;;;13.80;99.90;;;;;;5048936;28;20505;-82
2023/06/15 05:13:55;;;;;;;4.10;3.80;;;13.80;99.90;;;;;;5041991;28;20536;-80
2023/06/15 05:16:22;;;;;;;3.90;3.47;;;14.00;99.90;;;;;;5046730;28;20441;-81
2023/06/15 05:18:50;;;;;;;7.17;6.57;;;14.30;99.90;;;;;;5044743;28;20553;-80
2023/06/15 05:21:17;;;;;;;7.53;3.80;;;14.30;99.90;;;;;;5044798;28;21028;-79
2023/06/15 05:23:44;;;;;;;6.00;4.47;;;14.50;99.90;;;;;;5045828;28;21024;-81
2023/06/15 05:26:13;;;;;;;3.90;3.60;;;14.50;99.90;;;;;;5043768;28;20483;-80
2023/06/15 05:28:41;;;;;;;4.40;4.00;;;14.50;99.90;;;;;;5039876;28;20514;-81
2023/06/15 05:31:08;;;;;;;8.13;5.73;;;14.50;99.90;;;;;;5046556;28;20449;-81
2023/06/15 05:33:35;;;;;;;5.60;5.20;;;14.60;99.90;;;;;;5043007;28;20465;-80
2023/06/15 05:36:02;;;;;;;5.13;4.63;;;14.50;99.90;;;;;;5056295;28;20447;-80
2023/06/15 05:38:29;;;;;;;6.00;5.43;;;14.60;99.90;;;;;;5046860;28;20453;-79
2023/06/15 05:40:56;;;;;;;5.30;4.90;;;14.50;99.90;;;;;;5045623;28;20453;-80
2023/06/15 05:43:23;;;;;;;4.80;4.50;;;14.50;99.90;;;;;;5044580;28;21224;-80
2023/06/15 05:45:52;;;;;;;4.80;4.30;;;14.60;99.90;;;;;;5050775;28;20517;-81
2023/06/15 05:48:19;;;;;;;4.87;4.47;;;14.40;99.90;;;;;;5053306;28;20562;-79
2023/06/15 05:50:46;;;;;;;6.40;4.60;;;14.40;99.90;;;;;;5037227;28;20460;-82
2023/06/15 05:53:13;;;;;;;5.37;4.57;;;14.40;99.90;;;;;;5044247;28;20901;-80
2023/06/15 05:55:40;;;;;;;4.53;4.13;;;14.50;99.90;;;;;;5047061;28;20501;-80
2023/06/15 05:58:07;;;;;;;4.10;3.70;;;14.50;99.90;;;;;;5043734;28;20513;-81
2023/06/15 06:00:34;;;;;;;5.30;4.90;;;14.40;99.90;;;;;;5038319;28;20505;-80
2023/06/15 06:03:02;;;;;;;4.90;4.40;;;14.60;99.90;;;;;;5039202;28;20476;-79
2023/06/15 06:05:30;;;;;;;5.97;4.63;;;14.70;99.90;;;;;;5037740;28;20489;-79
2023/06/15 06:07:56;;;;;;;4.70;4.27;;;14.70;99.90;;;;;;5046401;28;20506;-79
2023/06/15 06:10:23;;;;;;;4.20;3.90;;;14.80;99.90;;;;;;5042096;28;20464;-80
2023/06/15 06:12:50;;;;;;;4.40;4.00;;;14.80;99.90;;;;;;5047720;28;21000;-80
2023/06/15 06:15:17;;;;;;;4.17;3.87;;;14.60;99.90;;;;;;5047142;28;20460;-82
2023/06/15 06:17:44;;;;;;;4.40;4.10;;;14.60;99.90;;;;;;5049112;28;20949;-80
2023/06/15 06:20:13;;;;;;;4.50;4.07;;;14.80;99.90;;;;;;5045795;28;20465;-81
2023/06/15 06:22:41;;;;;;;7.13;4.57;;;15.10;99.90;;;;;;5047380;28;20559;-79
2023/06/15 06:25:08;;;;;;;5.77;4.47;;;15.30;99.90;;;;;;5047115;28;20449;-79
2023/06/15 06:27:36;;;;;;;4.10;3.80;;;15.40;99.90;;;;;;5049311;28;20441;-79
2023/06/15 06:30:03;;;;;;;5.37;4.40;;;15.50;99.90;;;;;;5048334;28;20463;-81
2023/06/15 06:32:30;;;;;;;5.70;5.10;;;15.80;99.90;;;;;;5048643;28;20572;-79
2023/06/15 06:34:57;;;;;;;4.67;4.27;;;15.90;99.90;;;;;;5045855;28;20465;-81
2023/06/15 06:37:25;;;;;;;7.37;5.30;;;16.00;99.90;;;;;;5049508;28;20534;-80
2023/06/15 06:39:52;;;;;;;6.30;4.27;;;16.10;99.90;;;;;;5050518;28;20480;-80
2023/06/15 06:42:19;;;;;;;4.90;4.47;;;16.30;99.90;;;;;;5043917;28;20496;-81
2023/06/15 06:44:46;;;;;;;5.33;3.40;;;16.50;99.90;;;;;;5049699;28;20461;-80
2023/06/15 06:47:13;;;;;;;4.63;4.17;;;16.50;99.90;;;;;;5050142;28;21139;-78
2023/06/15 06:49:40;;;;;;;5.43;5.00;;;16.70;99.90;;;;;;5047588;28;20468;-80
2023/06/15 06:52:08;;;;;;;4.67;4.30;;;16.90;99.90;;;;;;5049511;28;20512;-80
2023/06/15 06:54:36;;;;;;;4.23;3.93;;;17.50;99.90;;;;;;5039696;28;20514;-80
2023/06/15 06:57:03;;;;;;;5.10;4.37;;;17.30;99.60;;;;;;5049207;28;20891;-80
2023/06/15 06:59:30;;;;;;;4.90;3.97;;;17.20;99.90;;;;;;5049109;28;21181;-83
2023/06/15 07:01:57;;;;;;;5.37;3.77;;;17.40;99.90;;;;;;5048350;28;20437;-79
2023/06/15 07:04:24;;;;;;;4.63;4.27;;;17.60;98.30;;;;;;5048356;28;20519;-80
2023/06/15 07:06:51;;;;;;;4.83;4.40;;;18.20;98.90;;;;;;5049259;28;20921;-79
2023/06/15 07:09:18;;;;;;;5.60;5.07;;;18.00;98.20;;;;;;5040609;28;20565;-80
2023/06/15 07:11:47;;;;;;;4.30;4.00;;;18.30;99.10;;;;;;5046480;28;20551;-81
2023/06/15 07:14:14;;;;;;;4.17;3.80;;;18.30;97.90;;;;;;5049243;28;20527;-83
2023/06/15 07:16:41;;;;;;;4.00;3.70;;;18.00;97.10;;;;;;5048550;28;20457;-81
2023/06/15 07:19:08;;;;;;;4.50;4.10;;;18.20;97.70;;;;;;5034175;28;20515;-80
2023/06/15 07:21:35;;;;;;;5.27;3.87;;;18.10;96.80;;;;;;5043713;28;20826;-78
2023/06/15 07:24:02;;;;;;;7.73;4.27;;;18.20;96.60;;;;;;5045996;28;20480;-80
2023/06/15 07:26:29;;;;;;;4.33;3.93;;;18.20;95.80;;;;;;5047085;28;20516;-79
2023/06/15 07:28:57;;;;;;;6.10;5.57;;;17.60;96.30;;;;;;5046066;28;20551;-81
2023/06/15 07:31:24;;;;;;;6.00;5.27;;;17.50;96.50;;;;;;5040096;28;20492;-79
2023/06/15 07:33:54;;;;;;;4.03;3.63;;;18.20;96.00;;;;;;5040645;28;20892;-80
2023/06/15 07:36:21;;;;;;;4.23;3.70;;;19.20;96.00;;;;;;5048158;28;20544;-81
2023/06/15 07:38:48;;;;;;;5.03;4.63;;;19.90;92.50;;;;;;5039588;28;20447;-80
2023/06/15 07:41:15;;;;;;;3.90;3.70;;;19.80;91.10;;;;;;5048760;28;20437;-83
2023/06/15 07:43:42;;;;;;;3.97;3.67;;;19.50;92.20;;;;;;5047490;28;20519;-79
2023/06/15 07:46:10;;;;;;;4.20;3.87;;;19.50;90.70;;;;;;5047188;28;20493;-80
2023/06/15 07:48:37;;;;;;;11.33;4.20;;;19.70;92.60;;;;;;5047168;28;20473;-79
2023/06/15 07:51:04;;;;;;;5.23;3.50;;;20.40;94.60;;;;;;5047940;28;20441;-81
2023/06/15 07:53:31;;;;;;;4.10;3.80;;;20.70;90.30;;;;;;5047618;28;20512;-82
2023/06/15 07:55:58;;;;;;;3.60;3.30;;;20.80;90.00;;;;;;5039722;28;20462;-81
2023/06/15 07:58:25;;;;;;;3.63;3.23;;;21.00;89.10;;;;;;5044642;28;20946;-86
2023/06/15 08:00:52;;;;;;;9.20;4.20;;;20.40;87.80;;;;;;5048848;28;20476;-84
2023/06/15 08:03:20;;;;;;;3.90;3.60;;;20.00;89.60;;;;;;5047415;28;20952;-83
2023/06/15 08:05:47;;;;;;;4.03;3.60;;;19.90;90.10;;;;;;5047107;28;20871;-83
2023/06/15 08:08:14;;;;;;;4.17;3.87;;;20.00;92.00;;;;;;5041434;28;20550;-82
2023/06/15 08:10:41;;;;;;;4.80;4.40;;;20.60;89.60;;;;;;5048127;28;20494;-81
2023/06/15 08:13:08;;;;;;;4.60;3.80;;;21.10;88.30;;;;;;5046085;28;20519;-83
2023/06/15 08:15:34;;;;;;;4.80;4.40;;;21.00;88.10;;;;;;5046392;28;20523;-81
2023/06/15 08:18:01;;;;;;;3.70;3.33;;;20.50;86.70;;;;;;5046125;28;20591;-84
2023/06/15 08:20:30;;;;;;;5.93;4.57;;;20.70;83.30;;;;;;5045028;28;20467;-81
2023/06/15 08:22:57;;;;;;;4.27;3.97;;;20.80;86.60;;;;;;5048219;28;20445;-81
2023/06/15 08:25:24;;;;;;;4.67;4.27;;;21.10;88.80;;;;;;5045900;28;20456;-81
2023/06/15 08:27:51;;;;;;;4.20;3.90;;;21.00;81.60;;;;;;5048227;28;20502;-81
2023/06/15 08:30:18;;;;;;;3.13;2.87;;;20.70;83.20;;;;;;5047020;28;20477;-81
2023/06/15 08:32:45;;;;;;;4.53;4.03;;;20.70;84.70;;;;;;5045193;28;20546;-81
2023/06/15 08:35:12;;;;;;;4.40;3.97;;;20.50;85.70;;;;;;5048239;28;20476;-81
2023/06/15 08:37:40;;;;;;;6.80;4.23;;;19.90;83.90;;;;;;5046607;28;20506;-81
2023/06/15 08:40:08;;;;;;;3.83;3.53;;;19.40;82.70;;;;;;5043528;28;20895;-81
2023/06/15 08:42:36;;;;;;;4.30;3.90;;;20.20;87.00;;;;;;5046864;28;20497;-81
2023/06/15 08:45:07;;;;;;;3.87;3.27;;;20.80;83.80;;;;;;5046265;28;20528;-81
2023/06/15 08:47:34;;;;;;;8.00;3.80;;;21.20;80.00;;;;;;5043121;28;20506;-81
2023/06/15 08:50:04;;;;;;;3.00;2.80;;;21.00;84.80;;;;;;5046910;28;21309;-82
2023/06/15 08:52:34;;;;;;;4.23;3.90;;;20.40;77.60;;;;;;5035385;28;20536;-81
2023/06/15 08:55:03;;;;;;;6.50;3.20;;;20.50;79.50;;;;;;5047636;28;20499;-80
2023/06/15 08:57:32;;;;;;;4.60;3.70;;;20.70;83.00;;;;;;5046241;28;20445;-82
2023/06/15 08:59:59;;;;;;;2.93;2.73;;;21.10;83.80;;;;;;5046380;28;20495;-83
2023/06/15 09:02:28;;;;;;;2.83;2.60;;;21.30;82.10;;;;;;5046168;28;20536;-80
2023/06/15 09:04:56;;;;;;;3.37;3.00;;;21.20;81.30;;;;;;5041558;28;20488;-81
2023/06/15 09:07:23;;;;;;;3.17;2.97;;;21.30;67.50;;;;;;5043465;28;20442;-83
2023/06/15 09:10:14;;;;;;;5.83;3.23;;;21.40;73.80;;;;;;5038669;28;20553;-82
2023/06/15 09:12:46;;;;;;;5.00;3.20;;;21.40;69.00;;;;;;5038184;28;20574;-81
2023/06/15 09:15:18;;;;;;;3.63;3.33;;;21.50;67.50;;;;;;5045754;28;20606;-82
2023/06/15 09:17:46;;;;;;;3.20;3.00;;;21.40;69.70;;;;;;5046368;28;20464;-83
2023/06/15 09:20:13;;;;;;;3.73;2.27;;;21.40;68.60;;;;;;5045829;28;20546;-82
2023/06/15 09:22:42;;;;;;;7.50;2.60;;;21.90;73.00;;;;;;5044782;28;20456;-81
2023/06/15 09:25:19;;;;;;;2.47;2.27;;;22.10;69.90;;;;;;5047319;28;20466;-82
2023/06/15 09:27:56;;;;;;;2.60;2.30;;;22.30;66.50;;;;;;5046269;28;20461;-78
2023/06/15 09:30:29;;;;;;;4.40;2.30;;;22.70;61.60;;;;;;5046420;28;20441;-78
2023/06/15 09:32:57;;;;;;;3.27;2.40;;;22.50;59.80;;;;;;5046421;28;20488;-78
2023/06/15 09:35:24;;;;;;;2.13;2.03;;;22.20;66.70;;;;;;5044417;28;20463;-81
2023/06/15 09:37:53;;;;;;;3.10;2.90;;;22.50;58.90;;;;;;5045034;28;20851;-81
2023/06/15 09:40:25;;;;;;;4.77;2.60;;;22.50;55.90;;;;;;5038357;28;20459;-80
2023/06/15 09:42:55;;;;;;;3.93;3.53;;;22.60;60.00;;;;;;5045760;28;20506;-78
2023/06/15 09:45:23;;;;;;;2.83;2.50;;;22.70;57.50;;;;;;5040654;28;20491;-82
2023/06/15 09:47:55;;;;;;;2.43;2.23;;;22.90;57.90;;;;;;5044859;28;20437;-79
2023/06/15 09:50:28;;;;;;;2.10;2.00;;;23.00;53.30;;;;;;5048733;28;20480;-78
2023/06/15 09:52:57;;;;;;;2.87;2.67;;;22.90;55.50;;;;;;5048282;28;20477;-81
2023/06/15 09:55:25;;;;;;;2.67;2.47;;;22.70;54.10;;;;;;5049099;28;20451;-80
2023/06/15 09:57:53;;;;;;;2.63;2.23;;;22.50;58.50;;;;;;5048997;28;20860;-79
2023/06/15 10:00:22;;;;;;;2.73;2.50;;;22.80;54.10;;;;;;5050009;28;20480;-79
2023/06/15 10:02:52;;;;;;;2.50;2.30;;;23.30;55.00;;;;;;5047547;28;21827;-80
2023/06/15 10:05:27;;;;;;;2.63;2.43;;;23.50;51.20;;;;;;5050951;28;20450;-79
2023/06/15 10:07:54;;;;;;;2.60;2.30;;;23.80;52.00;;;;;;5049746;28;20551;-80
2023/06/15 10:10:22;;;;;;;3.17;2.70;;;23.80;52.60;;;;;;5048629;28;20474;-79
2023/06/15 10:12:53;;;;;;;2.30;1.97;;;23.80;46.40;;;;;;5050560;28;20496;-79
2023/06/15 10:15:21;;;;;;;1.87;1.77;;;23.60;44.50;;;;;;5048518;28;20851;-78
2023/06/15 10:17:51;;;;;;;2.60;2.43;;;23.30;45.80;;;;;;5049903;28;20519;-79
2023/06/15 10:20:19;;;;;;;3.17;2.97;;;23.30;49.90;;;;;;5048183;28;20457;-79
2023/06/15 10:22:56;;;;;;;2.27;2.17;;;23.90;52.00;;;;;;5046873;28;20822;-78
2023/06/15 10:25:24;;;;;;;1.90;1.80;;;23.50;47.70;;;;;;5048984;28;20560;-79
2023/06/15 10:27:53;;;;;;;1.80;1.70;;;23.00;45.90;;;;;;5048968;28;20868;-79
2023/06/15 10:30:29;;;;;;;3.53;2.37;;;23.20;50.70;;;;;;5049824;28;20523;-79
2023/06/15 10:33:04;;;;;;;3.00;2.13;;;23.30;43.50;;;;;;5049653;28;20441;-82
2023/06/15 10:35:36;;;;;;;2.47;2.27;;;23.10;43.10;;;;;;5044066;28;20459;-78
2023/06/15 10:38:18;;;;;;;1.97;1.87;;;23.20;46.10;;;;;;5049716;28;20449;-80
2023/06/15 10:40:48;;;;;;;4.20;1.80;;;23.30;43.90;;;;;;5048564;28;20502;-79
2023/06/15 10:43:19;;;;;;;1.87;1.37;;;23.40;38.50;;;;;;5049887;28;20451;-81
2023/06/15 10:45:47;;;;;;;1.80;1.40;;;23.60;39.80;;;;;;5047821;28;20999;-82
2023/06/15 10:48:22;;;;;;;3.47;2.30;;;23.80;37.70;;;;;;5049940;28;20458;-82
2023/06/15 10:50:51;;;;;;;1.63;1.53;;;23.90;42.70;;;;;;5049916;28;20522;-79
2023/06/15 10:53:23;;;;;;;1.83;1.60;;;24.00;41.70;;;;;;5048291;28;20994;-81
2023/06/15 10:55:54;;;;;;;2.43;2.30;;;24.40;46.60;;;;;;5048242;28;20438;-79
2023/06/15 10:58:24;;;;;;;2.00;1.90;;;24.30;43.30;;;;;;5044213;28;20501;-79
2023/06/15 11:01:07;;;;;;;1.97;1.87;;;24.20;43.00;;;;;;5041613;28;20792;-78
2023/06/15 11:03:35;;;;;;;1.97;1.70;;;24.30;44.40;;;;;;5047868;28;21298;-79
2023/06/15 11:06:07;;;;;;;3.13;2.57;;;24.20;42.40;;;;;;5048301;28;20441;-79
2023/06/15 11:08:46;;;;;;;3.07;1.60;;;24.30;41.20;;;;;;5046681;28;20965;-82
2023/06/15 11:11:14;;;;;;;1.60;1.50;;;24.30;42.60;;;;;;5048181;28;20437;-81
2023/06/15 11:14:03;;;;;;;1.97;1.77;;;24.30;43.10;;;;;;5047882;28;20506;-79
2023/06/15 11:16:32;;;;;;;2.07;1.97;;;24.20;40.20;;;;;;5044474;28;20542;-79
2023/06/15 11:19:15;;;;;;;1.93;1.63;;;24.40;37.50;;;;;;5046656;28;20445;-78
2023/06/15 11:21:44;;;;;;;1.93;1.83;;;24.20;36.50;;;;;;5048382;28;20543;-79
2023/06/15 11:24:13;;;;;;;1.60;1.50;;;24.70;36.70;;;;;;5045969;28;20618;-79
2023/06/15 11:26:41;;;;;;;1.90;1.77;;;24.40;34.70;;;;;;5047674;28;20442;-78
2023/06/15 11:29:12;;;;;;;1.57;1.47;;;24.50;38.20;;;;;;5047851;28;21240;-79
2023/06/15 11:31:41;;;;;;;1.53;1.43;;;24.60;35.10;;;;;;5048015;28;20452;-81
2023/06/15 11:34:10;;;;;;;1.90;1.50;;;25.10;35.70;;;;;;5047611;28;20512;-79
2023/06/15 11:36:37;;;;;;;2.77;2.57;;;25.20;41.70;;;;;;5048108;28;20456;-82
2023/06/15 11:39:05;;;;;;;2.07;1.97;;;25.10;39.80;;;;;;5046939;28;20463;-79
2023/06/15 11:41:32;;;;;;;1.70;1.60;;;24.90;38.70;;;;;;5043327;28;20574;-79
2023/06/15 11:43:59;;;;;;;2.70;1.83;;;24.70;36.70;;;;;;5046069;28;20523;-79
2023/06/15 11:46:27;;;;;;;1.83;1.73;;;24.60;34.90;;;;;;5047273;28;20452;-82
2023/06/15 11:48:56;;;;;;;2.00;1.80;;;24.90;34.10;;;;;;5045024;28;20442;-82
2023/06/15 11:51:23;;;;;;;0.93;0.90;;;25.20;42.30;;;;;;5047618;28;20545;-83
2023/06/15 11:53:54;;;;;;;1.20;1.10;;;24.50;30.50;;;;;;5046978;28;21101;-84
2023/06/15 11:56:21;;;;;;;1.40;1.20;;;24.80;31.60;;;;;;5042644;28;20457;-81
2023/06/15 11:58:50;;;;;;;1.80;1.70;;;24.80;32.10;;;;;;5045906;28;20891;-78
2023/06/15 12:01:18;;;;;;;1.93;1.70;;;24.60;33.90;;;;;;5047965;28;20477;-78
2023/06/15 12:03:48;;;;;;;2.33;1.70;;;24.70;34.40;;;;;;5046025;28;20535;-82
2023/06/15 12:06:17;;;;;;;2.07;1.97;;;24.80;34.30;;;;;;5049047;28;20567;-79
2023/06/15 12:08:45;;;;;;;1.50;1.40;;;25.10;34.20;;;;;;5046978;28;20465;-81
2023/06/15 12:11:12;;;;;;;3.03;1.73;;;25.20;39.40;;;;;;5047897;28;20600;-79
2023/06/15 12:13:40;;;;;;;1.77;1.53;;;26.10;36.60;;;;;;5040828;28;20480;-83
2023/06/15 12:16:07;;;;;;;2.00;1.90;;;26.50;36.30;;;;;;5047106;28;20453;-81
2023/06/15 12:18:34;;;;;;;3.03;1.97;;;26.50;33.70;;;;;;5048230;28;20520;-81
2023/06/15 12:21:05;;;;;;;2.07;1.80;;;26.70;34.30;;;;;;5041160;28;20558;-81
2023/06/15 12:23:33;;;;;;;2.07;1.87;;;26.50;34.60;;;;;;5045155;28;20457;-82
2023/06/15 12:26:02;;;;;;;1.60;1.50;;;26.80;38.50;;;;;;5047048;28;20464;-84
2023/06/15 12:28:32;;;;;;;2.30;2.10;;;26.60;33.60;;;;;;5042779;28;20452;-81
2023/06/15 12:31:03;;;;;;;1.50;1.40;;;26.40;31.90;;;;;;5047872;28;21212;-81
2023/06/15 12:33:31;;;;;;;2.27;2.07;;;26.90;32.00;;;;;;5042887;28;21018;-82
2023/06/15 12:36:00;;;;;;;3.13;2.43;;;26.40;34.00;;;;;;5046586;28;21182;-81
2023/06/15 12:38:30;;;;;;;2.70;2.50;;;25.50;38.10;;;;;;5044084;28;20950;-78
2023/06/15 12:40:57;;;;;;;2.40;2.20;;;25.30;40.60;;;;;;5047079;28;20448;-79
2023/06/15 12:43:26;;;;;;;1.73;1.63;;;25.00;37.70;;;;;;5047589;28;20440;-79
2023/06/15 12:45:54;;;;;;;2.67;2.27;;;24.80;37.00;;;;;;5045469;28;20444;-78
2023/06/15 12:48:22;;;;;;;1.80;1.70;;;25.20;36.40;;;;;;5038426;28;20552;-79
2023/06/15 12:50:50;;;;;;;2.03;1.87;;;24.90;39.10;;;;;;5046991;28;20468;-78
2023/06/15 12:53:17;;;;;;;2.33;1.97;;;24.70;40.40;;;;;;5046885;28;20442;-78